Time;durP1;ratioP1;P1;durP2;ratioP2;P2;SDS_P1;SDS_P2;PMS_P1;PMS_P2;Temp;Humidity;BMP_temperature;BMP_pressure;BME280_temperature;BME280_humidity;BME280_pressure;Samples;Min_cycle;Max_cycle;Signal;HPM_P1;HPM_P2
2020/12/31 00:02:06;;;;;;;23.92;4.10;;;;;;;2.26;70.03;95520.38;5049180;28;20048;-66
2020/12/31 00:04:32;;;;;;;47.50;4.28;;;;;;;2.00;70.33;95519.81;5049453;28;20049;-65
2020/12/31 00:06:58;;;;;;;48.55;4.47;;;;;;;1.82;70.81;95529.38;5049725;28;20818;-65
2020/12/31 00:09:24;;;;;;;61.95;4.78;;;;;;;1.76;71.13;95530.50;5048794;28;20049;-65
2020/12/31 00:11:51;;;;;;;55.35;4.20;;;;;;;1.77;70.78;95522.16;5048871;28;20138;-65
2020/12/31 00:14:17;;;;;;;58.90;4.78;;;;;;;1.66;71.10;95519.84;5048890;28;20057;-65
2020/12/31 00:16:43;;;;;;;70.65;5.20;;;;;;;1.52;71.60;95525.09;5049102;28;20048;-65
2020/12/31 00:19:09;;;;;;;77.40;5.07;;;;;;;1.11;72.99;95525.38;5048991;28;20052;-65
2020/12/31 00:21:35;;;;;;;28.13;4.13;;;;;;;1.14;73.03;95522.13;5050660;28;20041;-65
2020/12/31 00:24:01;;;;;;;28.63;3.88;;;;;;;1.10;73.31;95515.75;5052622;28;20072;-65
2020/12/31 00:26:27;;;;;;;28.45;3.55;;;;;;;1.09;73.32;95524.84;5052400;28;20045;-65
2020/12/31 00:28:53;;;;;;;30.90;3.67;;;;;;;1.14;73.18;95524.81;5052689;28;20053;-65
2020/12/31 00:31:19;;;;;;;31.92;3.72;;;;;;;1.13;73.27;95519.72;5052090;28;20056;-65
2020/12/31 00:33:45;;;;;;;47.58;4.60;;;;;;;1.00;73.59;95526.53;5052231;28;20443;-65
2020/12/31 00:36:11;;;;;;;37.63;3.95;;;;;;;0.92;73.69;95514.50;5051660;28;20451;-65
2020/12/31 00:38:37;;;;;;;43.38;4.50;;;;;;;0.94;74.03;95524.94;5052456;28;20540;-65
2020/12/31 00:41:03;;;;;;;38.70;3.75;;;;;;;0.96;73.70;95525.47;5051098;28;20095;-65
2020/12/31 00:43:29;;;;;;;30.98;3.72;;;;;;;0.99;73.56;95528.41;5052422;28;20048;-65
2020/12/31 00:45:56;;;;;;;41.20;4.10;;;;;;;0.95;73.65;95521.19;5052339;28;20037;-64
2020/12/31 00:48:22;;;;;;;17.92;3.08;;;;;;;0.94;73.59;95525.75;5051620;28;20048;-65
2020/12/31 00:50:48;;;;;;;20.70;3.30;;;;;;;0.95;73.63;95521.19;5052402;28;20069;-65
2020/12/31 00:53:14;;;;;;;11.25;3.00;;;;;;;0.91;73.56;95528.19;5051755;28;20045;-65
2020/12/31 00:55:40;;;;;;;20.65;3.33;;;;;;;0.89;73.55;95530.31;5052167;28;20125;-65
2020/12/31 00:58:06;;;;;;;29.83;3.90;;;;;;;0.86;73.68;95530.88;5051527;28;20037;-65
2020/12/31 01:00:33;;;;;;;11.70;3.33;;;;;;;0.85;73.86;95530.09;5052155;28;20052;-65
2020/12/31 01:03:01;;;;;;;26.55;3.38;;;;;;;0.83;73.75;95534.09;5051868;28;20492;-65
2020/12/31 01:05:27;;;;;;;28.98;3.67;;;;;;;0.80;73.53;95532.00;5051762;28;20074;-65
2020/12/31 01:07:53;;;;;;;36.60;3.67;;;;;;;0.73;73.57;95530.41;5051837;28;20047;-65
2020/12/31 01:10:20;;;;;;;40.95;3.95;;;;;;;0.71;73.56;95529.09;5050989;28;20072;-65
2020/12/31 01:12:46;;;;;;;30.77;3.83;;;;;;;0.65;73.69;95536.34;5051768;28;20451;-65
2020/12/31 01:15:12;;;;;;;10.80;2.85;;;;;;;0.61;74.02;95529.91;5051309;28;20053;-65
2020/12/31 01:17:38;;;;;;;29.90;3.80;;;;;;;0.59;73.98;95533.97;5051165;28;20118;-65
2020/12/31 01:20:05;;;;;;;35.72;3.97;;;;;;;0.54;74.17;95534.78;5051135;28;20045;-66
2020/12/31 01:22:31;;;;;;;28.67;4.00;;;;;;;0.52;74.16;95540.44;5051548;28;20044;-65
2020/12/31 01:24:57;;;;;;;42.65;4.28;;;;;;;0.49;74.12;95537.47;5051448;28;20123;-65
2020/12/31 01:27:23;;;;;;;35.00;3.67;;;;;;;0.46;74.40;95538.03;5051005;28;20118;-65
2020/12/31 01:29:49;;;;;;;40.85;4.30;;;;;;;0.42;74.44;95539.66;5051531;28;20045;-65
2020/12/31 01:32:15;;;;;;;40.55;4.15;;;;;;;0.38;74.35;95533.25;5051063;28;20416;-65
2020/12/31 01:34:41;;;;;;;43.33;4.13;;;;;;;0.35;74.27;95536.47;5051254;28;20044;-65
2020/12/31 01:37:08;;;;;;;37.38;3.92;;;;;;;0.28;74.54;95528.72;5050855;28;20463;-66
2020/12/31 01:39:34;;;;;;;32.03;4.45;;;;;;;0.27;74.58;95523.66;5051123;28;20385;-65
2020/12/31 01:42:04;;;;;;;35.53;3.90;;;;;;;0.25;74.82;95538.09;5050688;28;20044;-65
2020/12/31 01:44:30;;;;;;;55.47;5.00;;;;;;;0.23;75.42;95534.09;5047869;28;20033;-65
2020/12/31 01:47:00;;;;;;;25.75;4.10;;;;;;;0.22;75.59;95529.81;5051186;28;20558;-65
2020/12/31 01:49:28;;;;;;;27.63;4.30;;;;;;;0.21;75.80;95526.34;5050785;28;20044;-65
2020/12/31 01:51:55;;;;;;;35.20;4.55;;;;;;;0.20;76.44;95527.38;5050995;28;20052;-65
2020/12/31 01:54:22;;;;;;;20.33;3.42;;;;;;;0.24;76.26;95523.09;5050695;28;20057;-65
2020/12/31 01:56:49;;;;;;;48.40;4.60;;;;;;;0.24;76.14;95523.09;5050614;28;20048;-65
2020/12/31 01:59:16;;;;;;;25.83;3.95;;;;;;;0.20;76.58;95527.38;5050646;28;20102;-65
2020/12/31 02:01:42;;;;;;;38.58;4.53;;;;;;;0.15;76.97;95516.69;5050958;28;20059;-65
2020/12/31 02:04:09;;;;;;;36.17;4.43;;;;;;;0.18;76.90;95513.47;5050087;28;20045;-65
2020/12/31 02:06:37;;;;;;;31.80;4.32;;;;;;;0.15;76.93;95516.69;5050926;28;20393;-65
2020/12/31 02:09:03;;;;;;;40.40;4.70;;;;;;;0.25;76.82;95519.34;5050354;28;20562;-66
2020/12/31 02:11:30;;;;;;;24.10;4.28;;;;;;;0.32;76.47;95518.28;5050827;28;20251;-65
2020/12/31 02:13:56;;;;;;;53.85;5.38;;;;;;;0.40;76.27;95520.38;5050646;28;20493;-65
2020/12/31 02:16:25;;;;;;;37.83;4.35;;;;;;;0.41;76.09;95516.59;5050210;28;20052;-65
2020/12/31 02:18:55;;;;;;;33.38;4.68;;;;;;;0.35;76.26;95513.16;5050666;28;20055;-65
2020/12/31 02:21:24;;;;;;;25.15;4.00;;;;;;;0.39;76.10;95513.41;5050313;28;20053;-65
2020/12/31 02:23:52;;;;;;;33.88;4.30;;;;;;;0.44;75.86;95514.19;5050470;28;20103;-65
2020/12/31 02:26:18;;;;;;;29.85;4.18;;;;;;;0.45;75.75;95512.31;5050082;28;20079;-65
2020/12/31 02:28:44;;;;;;;32.22;4.65;;;;;;;0.45;75.72;95506.97;5052092;28;20045;-65
2020/12/31 02:31:10;;;;;;;44.08;4.63;;;;;;;0.50;75.33;95515.78;5054343;28;20508;-65
2020/12/31 02:33:36;;;;;;;35.95;4.60;;;;;;;0.50;74.92;95512.28;5054395;28;20045;-65
2020/12/31 02:36:03;;;;;;;26.00;4.38;;;;;;;0.49;74.74;95513.38;5053906;28;20041;-65
2020/12/31 02:38:29;;;;;;;34.03;4.72;;;;;;;0.49;74.78;95513.38;5054697;28;20111;-65
2020/12/31 02:40:55;;;;;;;43.53;5.07;;;;;;;0.47;74.64;95515.50;5054523;28;20500;-65
2020/12/31 02:43:21;;;;;;;37.90;4.93;;;;;;;0.45;74.62;95509.63;5054072;28;20427;-65
2020/12/31 02:45:47;;;;;;;33.10;4.80;;;;;;;0.44;74.52;95510.72;5054354;28;20041;-65
2020/12/31 02:48:13;;;;;;;32.65;4.63;;;;;;;0.35;75.33;95507.00;5053999;28;20519;-65
2020/12/31 02:50:39;;;;;;;41.80;5.05;;;;;;;0.37;75.28;95510.22;5053978;28;20045;-65
2020/12/31 02:53:05;;;;;;;34.83;5.13;;;;;;;0.32;75.74;95507.56;5053995;28;20037;-66
2020/12/31 02:55:31;;;;;;;30.02;4.90;;;;;;;0.33;75.80;95503.81;5054453;28;20041;-65
2020/12/31 02:57:58;;;;;;;17.10;3.72;;;;;;;0.30;75.14;95507.81;5054117;28;20489;-65
2020/12/31 03:00:24;;;;;;;37.97;4.82;;;;;;;0.28;75.07;95506.50;5053874;28;20044;-65
2020/12/31 03:02:50;;;;;;;36.85;5.03;;;;;;;0.23;74.65;95508.13;5054169;28;20041;-65
2020/12/31 03:05:16;;;;;;;24.60;4.20;;;;;;;0.19;74.67;95511.59;5053809;28;20060;-65
2020/12/31 03:07:42;;;;;;;44.08;5.13;;;;;;;0.15;74.62;95514.00;5053984;28;20055;-65
2020/12/31 03:10:08;;;;;;;39.30;5.25;;;;;;;0.07;74.79;95506.56;5052842;28;20045;-65
2020/12/31 03:12:36;;;;;;;41.92;5.00;;;;;;;0.01;75.18;95507.66;5053992;28;20488;-65
2020/12/31 03:15:06;;;;;;;44.70;5.55;;;;;;;-0.06;75.50;95518.63;5053262;28;20044;-65
2020/12/31 03:17:32;;;;;;;32.97;5.13;;;;;;;-0.10;75.78;95519.47;5054074;28;20052;-64
2020/12/31 03:19:58;;;;;;;36.40;5.35;;;;;;;-0.11;76.08;95510.59;5054015;28;20041;-65
2020/12/31 03:22:24;;;;;;;25.40;4.60;;;;;;;-0.10;76.36;95514.09;5053353;28;20170;-65
2020/12/31 03:24:50;;;;;;;29.35;4.55;;;;;;;-0.13;76.40;95510.06;5053696;28;20048;-65
2020/12/31 03:27:16;;;;;;;33.53;4.82;;;;;;;-0.15;76.11;95508.75;5053271;28;20091;-65
2020/12/31 03:29:42;;;;;;;25.27;4.70;;;;;;;-0.17;76.09;95510.88;5053952;28;20045;-64
2020/12/31 03:32:09;;;;;;;28.48;4.68;;;;;;;-0.17;75.93;95516.25;5053192;28;20098;-65
2020/12/31 03:34:35;;;;;;;37.67;4.85;;;;;;;-0.17;75.91;95505.53;5053641;28;20049;-65
2020/12/31 03:37:01;;;;;;;51.33;5.32;;;;;;;-0.21;75.70;95499.91;5053767;28;20604;-64
2020/12/31 03:39:27;;;;;;;28.35;4.60;;;;;;;-0.23;75.66;95503.94;5052933;28;20045;-65
2020/12/31 03:41:52;;;;;;;39.85;5.00;;;;;;;-0.25;75.66;95498.06;5053415;28;20095;-64
2020/12/31 03:44:18;;;;;;;31.98;4.70;;;;;;;-0.27;75.48;95490.31;5052902;28;20041;-65
2020/12/31 03:46:44;;;;;;;42.90;5.50;;;;;;;-0.31;75.68;95495.41;5053379;28;20036;-64
2020/12/31 03:49:11;;;;;;;30.60;4.53;;;;;;;-0.33;75.79;95496.72;5052957;28;20589;-67
2020/12/31 03:51:37;;;;;;;30.80;4.65;;;;;;;-0.35;75.77;95499.69;5053317;28;20094;-66
2020/12/31 03:54:03;;;;;;;22.55;4.25;;;;;;;-0.34;75.73;95490.59;5052906;28;20041;-67
2020/12/31 03:56:29;;;;;;;29.05;4.80;;;;;;;-0.37;75.84;95496.47;5053237;28;20044;-65
2020/12/31 03:58:55;;;;;;;34.85;4.97;;;;;;;-0.36;75.90;95498.09;5053203;28;20041;-65
2020/12/31 04:01:27;;;;;;;37.95;5.18;;;;;;;-0.37;75.83;95503.69;5052743;28;20049;-65
2020/12/31 04:03:53;;;;;;;35.63;4.95;;;;;;;-0.40;75.97;95494.34;5053157;28;20048;-65
2020/12/31 04:06:20;;;;;;;32.22;4.85;;;;;;;-0.42;76.02;95499.13;5052542;28;20045;-65
2020/12/31 04:08:46;;;;;;;40.42;5.38;;;;;;;-0.42;75.89;95504.50;5052937;28;20071;-65
2020/12/31 04:11:12;;;;;;;49.03;5.72;;;;;;;-0.43;75.81;95502.09;5052578;28;20488;-65
2020/12/31 04:13:38;;;;;;;45.33;5.25;;;;;;;-0.44;75.86;95497.81;5052910;28;20123;-65
2020/12/31 04:16:04;;;;;;;36.15;4.55;;;;;;;-0.46;75.86;95492.75;5052350;28;20049;-65
2020/12/31 04:18:30;;;;;;;30.95;5.03;;;;;;;-0.50;76.00;95486.31;5052882;28;20049;-66
2020/12/31 04:20:57;;;;;;;28.42;4.13;;;;;;;-0.51;76.13;95495.44;5052732;28;20045;-67
2020/12/31 04:23:24;;;;;;;36.58;4.55;;;;;;;-0.49;76.17;95492.47;5052336;28;20048;-67
2020/12/31 04:25:50;;;;;;;35.92;4.70;;;;;;;-0.48;76.21;95488.72;5052673;28;20041;-66
2020/12/31 04:28:16;;;;;;;52.67;5.25;;;;;;;-0.48;76.18;95494.88;5052089;28;20107;-67
2020/12/31 04:30:45;;;;;;;27.50;4.32;;;;;;;-0.49;76.07;95484.44;5052740;28;20055;-66
2020/12/31 04:33:11;;;;;;;44.90;4.93;;;;;;;-0.50;75.94;95486.31;5051954;28;20466;-67
2020/12/31 04:35:37;;;;;;;37.67;4.85;;;;;;;-0.48;75.89;95486.06;5052691;28;20049;-66
2020/12/31 04:38:03;;;;;;;43.75;5.47;;;;;;;-0.48;76.03;95481.50;5052073;28;20045;-64
2020/12/31 04:40:31;;;;;;;38.10;5.13;;;;;;;-0.48;75.96;95489.53;5052461;28;20059;-67
2020/12/31 04:42:57;;;;;;;34.35;4.55;;;;;;;-0.48;75.80;95484.19;5052334;28;20412;-67
2020/12/31 04:45:23;;;;;;;39.35;4.93;;;;;;;-0.53;75.65;95481.50;5051518;28;20083;-67
2020/12/31 04:48:06;;;;;;;45.20;4.90;;;;;;;-0.59;75.58;95482.59;5052396;28;20087;-66
2020/12/31 04:50:33;;;;;;;33.58;4.40;;;;;;;-0.62;75.71;95485.81;5051699;28;20503;-67
2020/12/31 04:53:00;;;;;;;41.50;4.93;;;;;;;-0.66;75.75;95482.06;5051897;28;20052;-67
2020/12/31 04:55:28;;;;;;;25.95;4.20;;;;;;;-0.68;75.66;95484.19;5051332;28;20408;-67
2020/12/31 04:57:55;;;;;;;42.67;5.05;;;;;;;-0.69;75.56;95485.25;5051760;28;20045;-65
2020/12/31 05:00:21;;;;;;;29.92;4.43;;;;;;;-0.70;75.76;95486.34;5051075;28;20056;-67
2020/12/31 05:02:53;;;;;;;39.58;5.03;;;;;;;-0.70;75.90;95479.13;5051735;28;20052;-66
2020/12/31 05:05:20;;;;;;;29.23;4.38;;;;;;;-0.69;75.81;95479.91;5051483;28;20077;-67
2020/12/31 05:07:48;;;;;;;36.47;4.70;;;;;;;-0.69;75.80;95479.91;5052203;28;20045;-66
2020/12/31 05:10:14;;;;;;;29.27;4.28;;;;;;;-0.67;75.81;95480.47;5051337;28;20068;-67
2020/12/31 05:12:40;;;;;;;33.53;4.78;;;;;;;-0.67;75.37;95485.81;5051969;28;20065;-67
2020/12/31 05:15:07;;;;;;;29.63;4.47;;;;;;;-0.69;75.46;95487.94;5051260;28;20053;-67
2020/12/31 05:17:33;;;;;;;21.27;4.22;;;;;;;-0.70;75.68;95499.72;5051876;28;20045;-67
2020/12/31 05:20:15;;;;;;;33.50;5.15;;;;;;;-0.72;75.80;95496.50;5051681;28;20049;-67
2020/12/31 05:22:41;;;;;;;33.47;4.63;;;;;;;-0.75;75.81;95495.16;5050576;28;20488;-67
2020/12/31 05:25:07;;;;;;;42.55;5.03;;;;;;;-0.80;75.82;95487.94;5051005;28;20056;-67
2020/12/31 05:27:33;;;;;;;27.65;4.57;;;;;;;-0.83;75.78;95490.34;5051526;28;20049;-67
2020/12/31 05:30:01;;;;;;;28.33;4.25;;;;;;;-0.87;75.82;95492.75;5051582;28;20532;-67
2020/12/31 05:32:29;;;;;;;36.45;5.00;;;;;;;-0.89;75.94;95489.56;5050377;28;20041;-67
2020/12/31 05:34:57;;;;;;;35.60;4.95;;;;;;;-0.91;75.96;95485.53;5051380;28;20048;-67
2020/12/31 05:37:25;;;;;;;45.05;5.28;;;;;;;-0.95;76.13;95495.94;5050902;28;20531;-67
2020/12/31 05:40:03;;;;;;;20.85;4.30;;;;;;;-1.01;76.19;95485.53;5051317;28;20033;-66
2020/12/31 05:42:30;;;;;;;31.73;4.35;;;;;;;-1.01;76.22;95490.88;5051067;28;20037;-67
2020/12/31 05:45:11;;;;;;;19.40;4.55;;;;;;;-1.02;76.16;95495.41;5051040;28;20049;-66
2020/12/31 05:47:46;;;;;;;29.75;4.38;;;;;;;-1.05;76.25;95490.59;5050861;28;20041;-67
2020/12/31 05:50:31;;;;;;;31.20;4.80;;;;;;;-1.08;76.35;95481.25;5050857;28;20538;-67
2020/12/31 05:52:57;;;;;;;49.03;5.30;;;;;;;-1.09;76.36;95484.19;5051047;28;20048;-67
2020/12/31 05:55:25;;;;;;;38.25;4.85;;;;;;;-1.08;76.47;95493.81;5050628;28;20406;-67
2020/12/31 05:57:52;;;;;;;33.45;4.68;;;;;;;-1.10;76.52;95485.22;5050962;28;20048;-64
2020/12/31 06:00:20;;;;;;;34.33;5.25;;;;;;;-1.12;76.58;95490.06;5050461;28;20048;-66
2020/12/31 06:02:50;;;;;;;32.42;4.85;;;;;;;-1.13;76.39;95493.78;5050830;28;20071;-66
2020/12/31 06:05:18;;;;;;;32.92;4.60;;;;;;;-1.17;76.51;95492.72;5050374;28;20053;-67
2020/12/31 06:07:46;;;;;;;29.83;4.80;;;;;;;-1.17;76.57;95490.84;5050865;28;20052;-67
2020/12/31 06:10:18;;;;;;;42.80;4.90;;;;;;;-1.17;76.51;95487.38;5050394;28;20052;-67
2020/12/31 06:13:03;;;;;;;43.65;5.22;;;;;;;-1.16;76.48;95488.97;5050883;28;20103;-67
2020/12/31 06:15:31;;;;;;;40.25;4.60;;;;;;;-1.15;76.46;95479.88;5050614;28;20037;-67
2020/12/31 06:18:00;;;;;;;37.17;4.80;;;;;;;-1.15;76.09;95485.22;5050712;28;20048;-67
2020/12/31 06:20:27;;;;;;;31.38;4.47;;;;;;;-1.17;76.00;95490.03;5050314;28;20044;-64
2020/12/31 06:23:12;;;;;;;32.80;4.32;;;;;;;-1.16;76.17;95491.63;5050650;28;20099;-67
2020/12/31 06:25:41;;;;;;;34.13;4.53;;;;;;;-1.17;76.13;95487.38;5050574;28;20064;-67
2020/12/31 06:28:12;;;;;;;36.72;4.47;;;;;;;-1.17;76.13;95495.38;5050190;28;20049;-65
2020/12/31 06:30:39;;;;;;;45.35;4.75;;;;;;;-1.18;75.81;95489.25;5050521;28;20048;-67
2020/12/31 06:33:16;;;;;;;42.85;4.63;;;;;;;-1.17;75.77;95487.38;5049915;28;20041;-67
2020/12/31 06:35:42;;;;;;;39.72;4.45;;;;;;;-1.18;75.76;95491.91;5050627;28;20040;-67
2020/12/31 06:38:09;;;;;;;33.40;4.78;;;;;;;-1.21;75.53;95496.97;5050117;28;20049;-67
2020/12/31 06:40:36;;;;;;;31.73;4.43;;;;;;;-1.22;75.62;95495.38;5050642;28;20106;-67
2020/12/31 06:43:07;;;;;;;42.58;4.93;;;;;;;-1.22;75.85;95490.03;5049990;28;20045;-67
2020/12/31 06:45:34;;;;;;;37.03;4.82;;;;;;;-1.23;75.72;95493.78;5050315;28;20132;-65
2020/12/31 06:48:00;;;;;;;44.15;5.10;;;;;;;-1.25;75.65;95503.91;5050437;28;20419;-65
2020/12/31 06:50:54;;;;;;;29.73;4.40;;;;;;;-1.26;75.53;95499.63;5050183;28;20060;-65
2020/12/31 06:53:30;;;;;;;29.83;4.30;;;;;;;-1.29;75.72;95502.84;5050114;28;20045;-65
2020/12/31 06:55:57;;;;;;;29.65;4.70;;;;;;;-1.31;75.66;95503.09;5050454;28;20036;-65
2020/12/31 06:58:24;;;;;;;25.25;4.30;;;;;;;-1.31;75.71;95508.44;5049901;28;20045;-65
2020/12/31 07:00:51;;;;;;;35.38;4.43;;;;;;;-1.32;75.70;95502.28;5050298;28;20496;-65
2020/12/31 07:03:45;;;;;;;25.67;3.95;;;;;;;-1.34;75.57;95504.44;5049726;28;20083;-65
2020/12/31 07:06:26;;;;;;;27.73;4.40;;;;;;;-1.34;75.76;95506.31;5049786;28;20103;-66
2020/12/31 07:08:53;;;;;;;39.58;4.68;;;;;;;-1.36;75.63;95501.25;5050170;28;20044;-67
2020/12/31 07:11:29;;;;;;;30.45;4.55;;;;;;;-1.37;75.75;95501.47;5049663;28;20049;-65
2020/12/31 07:13:55;;;;;;;57.88;5.75;;;;;;;-1.35;75.73;95502.03;5050353;28;20045;-65
2020/12/31 07:16:45;;;;;;;37.88;4.93;;;;;;;-1.37;75.80;95502.28;5053558;28;20055;-65
2020/12/31 07:19:11;;;;;;;36.92;5.13;;;;;;;-1.38;75.67;95503.34;5053467;28;20569;-65
2020/12/31 07:21:38;;;;;;;34.60;4.78;;;;;;;-1.38;75.69;95506.03;5053810;28;20053;-67
2020/12/31 07:24:24;;;;;;;25.42;4.03;;;;;;;-1.37;75.69;95507.63;5053436;28;20044;-65
2020/12/31 07:26:54;;;;;;;41.90;4.93;;;;;;;-1.37;75.68;95504.94;5053807;28;20037;-67
2020/12/31 07:29:24;;;;;;;29.33;4.68;;;;;;;-1.35;75.58;95502.03;5053222;28;20512;-67
2020/12/31 07:31:51;;;;;;;38.90;5.35;;;;;;;-1.34;75.25;95499.09;5053770;28;20504;-67
2020/12/31 07:34:25;;;;;;;31.65;5.18;;;;;;;-1.33;75.47;95503.38;5052885;28;20045;-66
2020/12/31 07:37:00;;;;;;;33.38;5.38;;;;;;;-1.29;75.42;95510.88;5053819;28;20050;-67
2020/12/31 07:39:26;;;;;;;32.15;5.75;;;;;;;-1.30;75.59;95509.25;5053043;28;20423;-67
2020/12/31 07:42:10;;;;;;;37.40;5.80;;;;;;;-1.30;75.46;95503.91;5053439;28;20496;-67
2020/12/31 07:44:53;;;;;;;36.28;6.03;;;;;;;-1.28;75.59;95507.13;5053341;28;20061;-67
2020/12/31 07:47:21;;;;;;;47.15;7.18;;;;;;;-1.27;75.55;95508.72;5053119;28;20053;-67
2020/12/31 07:49:47;;;;;;;47.53;6.78;;;;;;;-1.26;75.62;95510.31;5053361;28;20049;-65
2020/12/31 07:52:15;;;;;;;30.83;6.68;;;;;;;-1.24;75.61;95502.88;5052942;28;20045;-65
2020/12/31 07:54:41;;;;;;;39.70;6.85;;;;;;;-1.22;75.66;95495.38;5053267;28;20048;-65
2020/12/31 07:57:10;;;;;;;33.30;5.70;;;;;;;-1.20;75.90;95494.06;5052711;28;20548;-65
2020/12/31 07:59:43;;;;;;;23.52;5.88;;;;;;;-1.15;75.94;95491.41;5053356;28;20045;-65
2020/12/31 08:02:10;;;;;;;46.67;6.55;;;;;;;-1.11;75.89;95486.31;5052702;28;20041;-67
2020/12/31 08:04:36;;;;;;;42.05;6.38;;;;;;;-1.06;75.89;95488.97;5053109;28;20052;-67
2020/12/31 08:07:03;;;;;;;37.75;6.10;;;;;;;-1.02;75.95;95484.72;5052712;28;20041;-66
2020/12/31 08:09:30;;;;;;;34.28;6.72;;;;;;;-0.89;76.08;95478.88;5053164;28;20049;-65
2020/12/31 08:11:57;;;;;;;34.38;5.97;;;;;;;-0.63;76.34;95471.63;5052981;28;20044;-65
2020/12/31 08:14:24;;;;;;;33.92;6.05;;;;;;;-0.07;76.26;95468.84;5052323;28;20073;-65
2020/12/31 08:17:00;;;;;;;38.40;6.07;;;;;;;0.71;73.95;95476.28;5052730;28;20045;-65
2020/12/31 08:19:26;;;;;;;29.83;5.40;;;;;;;1.41;70.94;95480.63;5052493;28;20041;-65
2020/12/31 08:22:01;;;;;;;37.92;5.47;;;;;;;1.97;68.08;95472.06;5052702;28;20045;-65
2020/12/31 08:24:29;;;;;;;36.33;5.47;;;;;;;2.14;66.23;95467.06;5052570;28;20510;-65
2020/12/31 08:26:57;;;;;;;27.48;5.32;;;;;;;2.20;65.23;95465.91;5051335;28;20400;-65
2020/12/31 08:29:27;;;;;;;25.92;4.95;;;;;;;2.21;64.92;95466.69;5052097;28;20052;-65
2020/12/31 08:31:54;;;;;;;33.22;5.35;;;;;;;2.21;65.24;95470.19;5052501;28;20407;-65
2020/12/31 08:34:26;;;;;;;30.23;5.78;;;;;;;2.11;65.37;95467.63;5051904;28;20500;-65
2020/12/31 08:36:54;;;;;;;35.83;5.45;;;;;;;2.00;65.39;95471.50;5052565;28;20044;-65
2020/12/31 08:39:20;;;;;;;54.42;6.38;;;;;;;1.77;65.47;95467.69;5052105;28;20045;-65
2020/12/31 08:41:58;;;;;;;38.00;5.70;;;;;;;1.56;66.75;95467.06;5052350;28;20045;-65
2020/12/31 08:44:25;;;;;;;56.55;6.80;;;;;;;1.42;67.24;95466.94;5048902;28;20068;-65
2020/12/31 08:46:51;;;;;;;71.43;6.72;;;;;;;1.33;67.98;95467.84;5048882;28;20475;-65
2020/12/31 08:49:23;;;;;;;60.50;6.85;;;;;;;1.26;68.54;95465.47;5048799;28;20045;-65
2020/12/31 08:51:50;;;;;;;85.30;7.45;;;;;;;1.22;68.90;95465.22;5048790;28;20045;-66
2020/12/31 08:54:16;;;;;;;54.95;7.03;;;;;;;1.24;69.38;95468.41;5048425;28;20136;-66
2020/12/31 08:56:42;;;;;;;69.10;7.57;;;;;;;1.25;69.21;95456.63;5048631;28;20055;-66
2020/12/31 08:59:10;;;;;;;56.28;7.05;;;;;;;1.22;69.59;95462.53;5048590;28;20075;-66
2020/12/31 09:01:36;;;;;;;78.55;7.57;;;;;;;1.21;70.11;95470.88;5048639;28;20060;-66
2020/12/31 09:04:07;;;;;;;63.97;7.07;;;;;;;1.21;70.39;95458.28;5030305;28;20074;-66
2020/12/31 09:06:33;;;;;;;62.60;7.60;;;;;;;1.23;70.41;95461.47;5048726;28;20072;-66
2020/12/31 09:08:59;;;;;;;70.28;8.07;;;;;;;1.25;70.60;95462.00;5048704;28;20052;-66
2020/12/31 09:11:26;;;;;;;64.03;8.27;;;;;;;1.29;70.85;95460.34;5048128;28;20481;-65
2020/12/31 09:13:52;;;;;;;84.97;9.38;;;;;;;1.33;70.77;95451.75;5048094;28;20044;-66
2020/12/31 09:16:19;;;;;;;62.25;7.28;;;;;;;1.32;70.66;95453.63;5048151;28;20095;-65
2020/12/31 09:18:45;;;;;;;64.30;8.68;;;;;;;1.39;71.06;95450.59;5048238;28;20055;-66
2020/12/31 09:21:12;;;;;;;53.95;7.97;;;;;;;1.45;71.12;95449.47;5047912;28;20072;-65
2020/12/31 09:26:41;;;;;;;10.40;6.82;;;;;;;1.63;71.61;95450.66;5138833;27;20621;-67
2020/12/31 09:29:08;;;;;;;12.40;7.45;;;;;;;1.70;71.31;95443.06;5124926;27;20046;-67
2020/12/31 09:31:35;;;;;;;11.02;6.63;;;;;;;1.79;71.30;95439.50;5123709;27;20593;-67
2020/12/31 09:34:01;;;;;;;12.20;7.45;;;;;;;1.91;71.14;95435.59;5123979;27;20069;-69
2020/12/31 09:36:27;;;;;;;13.75;6.93;;;;;;;2.04;71.14;95430.38;5124082;27;20071;-67
2020/12/31 09:38:53;;;;;;;11.32;7.35;;;;;;;2.19;70.99;95426.69;5124848;27;20131;-67
2020/12/31 09:41:20;;;;;;;12.50;7.28;;;;;;;2.37;70.72;95424.34;5122711;27;20046;-67
2020/12/31 09:43:50;;;;;;;10.13;6.82;;;;;;;2.54;70.13;95421.94;5123652;27;20043;-67
2020/12/31 09:46:17;;;;;;;12.05;6.93;;;;;;;2.79;69.08;95420.78;5122853;27;20137;-66
2020/12/31 09:48:44;;;;;;;11.10;6.78;;;;;;;3.08;69.00;95409.84;5123531;28;20075;-67
2020/12/31 09:51:10;;;;;;;12.85;7.50;;;;;;;3.36;67.68;95408.88;5123380;27;20047;-65
2020/12/31 09:53:36;;;;;;;14.02;7.18;;;;;;;3.63;66.82;95404.63;5123891;27;20055;-67
2020/12/31 09:56:02;;;;;;;11.65;7.38;;;;;;;3.88;65.79;95395.28;5122679;27;20047;-68
2020/12/31 09:58:28;;;;;;;13.30;7.57;;;;;;;4.13;65.54;95394.00;5123838;27;20077;-65
2020/12/31 10:00:55;;;;;;;10.20;6.05;;;;;;;4.28;63.86;95382.09;5123824;27;20075;-67
2020/12/31 10:03:21;;;;;;;10.88;6.53;;;;;;;4.39;63.73;95384.31;5123203;27;20047;-67
2020/12/31 10:05:46;;;;;;;10.25;6.88;;;;;;;4.58;63.79;95381.44;5123622;27;20475;-67
2020/12/31 10:08:12;;;;;;;15.77;7.32;;;;;;;4.79;62.90;95381.78;5123325;27;20478;-65
2020/12/31 10:10:38;;;;;;;8.30;5.43;;;;;;;4.94;61.35;95383.34;5123148;27;20530;-64
2020/12/31 10:13:06;;;;;;;8.70;4.88;;;;;;;5.10;61.16;95381.09;5122632;27;20067;-65
2020/12/31 10:15:32;;;;;;;8.07;4.80;;;;;;;5.24;60.51;95371.03;5123889;27;20047;-65
2020/12/31 10:17:59;;;;;;;7.47;4.95;;;;;;;5.43;60.54;95371.63;5123743;27;20043;-65
2020/12/31 10:20:25;;;;;;;10.52;6.80;;;;;;;5.55;59.89;95375.66;5122881;27;20398;-65
2020/12/31 10:22:51;;;;;;;9.63;5.78;;;;;;;5.63;59.14;95378.38;5123271;27;20098;-66
2020/12/31 10:25:17;;;;;;;8.68;5.55;;;;;;;5.68;59.43;95369.34;5123088;27;20498;-65
2020/12/31 10:27:43;;;;;;;17.05;10.57;;;;;;;5.69;58.64;95373.66;5123479;27;20138;-65
2020/12/31 10:30:09;;;;;;;11.25;6.80;;;;;;;5.71;57.68;95364.13;5123095;27;20149;-65
2020/12/31 10:32:35;;;;;;;8.32;5.30;;;;;;;5.76;57.33;95349.72;5123305;27;20045;-65
2020/12/31 10:35:02;;;;;;;6.50;4.82;;;;;;;5.76;56.54;95352.41;5122786;27;20047;-69
2020/12/31 10:37:28;;;;;;;6.05;4.32;;;;;;;5.82;57.32;95343.06;5112487;27;20074;-65
2020/12/31 10:39:54;;;;;;;7.03;4.72;;;;;;;6.00;56.67;95339.34;5109388;28;20486;-65
2020/12/31 10:42:20;;;;;;;9.52;5.25;;;;;;;6.17;56.12;95335.88;5108979;28;20039;-65
2020/12/31 10:44:46;;;;;;;8.63;5.32;;;;;;;6.23;55.52;95328.44;5108854;28;20051;-65
2020/12/31 10:47:12;;;;;;;7.18;4.10;;;;;;;6.19;55.79;95320.13;5106704;28;20039;-66
2020/12/31 10:49:38;;;;;;;7.63;5.20;;;;;;;6.11;55.66;95312.00;5108679;28;20096;-65
2020/12/31 10:52:04;;;;;;;6.55;4.72;;;;;;;5.97;55.70;95307.53;5109100;28;20078;-65
2020/12/31 10:54:30;;;;;;;7.82;5.07;;;;;;;5.79;55.08;95305.84;5108751;27;20055;-65
2020/12/31 10:56:57;;;;;;;11.57;5.57;;;;;;;5.74;56.21;95297.88;5109529;27;20635;-65
2020/12/31 10:59:23;;;;;;;6.93;4.95;;;;;;;5.70;54.97;95303.13;5108631;27;20498;-66
2020/12/31 11:01:51;;;;;;;8.93;4.93;;;;;;;5.85;56.04;95293.81;5109055;28;20112;-67
2020/12/31 11:04:17;;;;;;;7.95;5.10;;;;;;;6.06;55.66;95298.66;5108678;28;20509;-65
2020/12/31 11:06:43;;;;;;;6.15;4.70;;;;;;;6.30;54.58;95292.81;5109393;28;20528;-65
2020/12/31 11:09:09;;;;;;;7.45;5.28;;;;;;;6.48;54.38;95289.03;5108997;28;20059;-65
2020/12/31 11:11:38;;;;;;;8.20;5.07;;;;;;;6.65;54.53;95282.81;5108278;28;20124;-65
2020/12/31 11:14:05;;;;;;;7.03;4.85;;;;;;;6.70;53.20;95274.53;5108005;27;20054;-65
2020/12/31 11:16:31;;;;;;;6.85;4.85;;;;;;;6.77;53.91;95275.63;5108580;27;20055;-65
2020/12/31 11:18:57;;;;;;;7.40;4.60;;;;;;;6.78;52.93;95266.38;5109251;28;20051;-65
2020/12/31 11:21:24;;;;;;;11.75;5.22;;;;;;;6.88;53.76;95264.47;5108346;27;20055;-66
2020/12/31 11:23:50;;;;;;;7.07;4.10;;;;;;;6.69;50.21;95268.34;5109181;28;20039;-65
2020/12/31 11:26:18;;;;;;;8.05;4.50;;;;;;;6.65;51.60;95261.16;5107806;28;20044;-65
2020/12/31 11:28:46;;;;;;;5.50;3.70;;;;;;;6.68;51.46;95260.50;5109148;28;20047;-65
2020/12/31 11:31:13;;;;;;;5.70;3.70;;;;;;;6.74;51.73;95248.44;5107112;28;20040;-67
2020/12/31 11:33:39;;;;;;;5.80;3.65;;;;;;;6.83;51.61;95241.09;5108638;28;20051;-66
2020/12/31 11:36:06;;;;;;;8.63;4.55;;;;;;;6.85;49.94;95238.06;5108258;28;20055;-68
2020/12/31 11:38:32;;;;;;;5.25;3.60;;;;;;;6.79;50.28;95240.94;5108375;28;20104;-65